createdAt,value
2023-03-12T00:00:15.142Z,69.6
2023-03-12T00:01:31.337Z,70
2023-03-12T00:02:47.530Z,70.2
2023-03-12T00:04:03.724Z,70
2023-03-12T00:05:20.169Z,70.1
2023-03-12T00:06:36.112Z,70.1
2023-03-12T00:07:51.573Z,69.9
2023-03-12T00:09:07.517Z,69.5
2023-03-12T00:10:23.711Z,70.6
2023-03-12T00:11:39.905Z,70.4
2023-03-12T00:12:46.000Z,69.8
2023-03-12T00:14:03.000Z,70
2023-03-12T00:15:28.487Z,70.4
2023-03-12T00:16:44.681Z,70.2
2023-03-12T00:17:51.000Z,70.3
2023-03-12T00:19:17.069Z,70.1
2023-03-12T00:20:33.263Z,69.3
2023-03-12T00:21:49.457Z,69.2
2023-03-12T00:23:05.905Z,69.7
2023-03-12T00:24:20.861Z,69.8
2023-03-12T00:25:37.304Z,69.9
2023-03-12T00:26:53.250Z,69.9
2023-03-12T00:28:09.444Z,69.2
2023-03-12T00:29:25.638Z,69
2023-03-12T00:30:41.832Z,69.5
2023-03-12T00:31:58.026Z,69
2023-03-12T00:33:14.220Z,69.6
2023-03-12T00:34:30.661Z,69.6
2023-03-12T00:35:46.608Z,69.7
2023-03-12T00:37:02.802Z,69.3
2023-03-12T00:38:18.996Z,69.7
2023-03-12T00:39:35.190Z,69.7
2023-03-12T00:40:50.401Z,69.9
2023-03-12T00:41:57.000Z,69.2
2023-03-12T00:43:13.000Z,69.4
2023-03-12T00:44:38.983Z,70
2023-03-12T00:45:55.432Z,69.9
2023-03-12T00:47:11.371Z,69.7
2023-03-12T00:48:27.564Z,68.9
2023-03-12T00:49:43.759Z,69.1
2023-03-12T00:51:00.200Z,69.4
2023-03-12T00:52:16.146Z,69.8
2023-03-12T00:53:32.340Z,70
2023-03-12T00:54:48.534Z,70.1
2023-03-12T00:56:04.728Z,69.8
2023-03-12T00:57:19.938Z,69.7
2023-03-12T00:58:01.000Z,69.7
2023-03-12T00:58:36.132Z,69.8
2023-03-12T00:59:43.000Z,69.1
2023-03-12T01:01:08.520Z,69.3
2023-03-12T01:02:15.000Z,69.5
2023-03-12T01:04:57.103Z,70.2
2023-03-12T01:06:13.544Z,70.5
2023-03-12T01:07:29.491Z,70.4
2023-03-12T01:08:45.684Z,70.3
2023-03-12T01:10:09.173Z,70.5
2023-03-12T01:11:18.320Z,70.7
2023-03-12T01:12:34.266Z,71.3
2023-03-12T01:13:40.000Z,70.7
2023-03-12T01:15:05.671Z,70.3
2023-03-12T01:16:22.115Z,70.5
2023-03-12T01:17:38.306Z,70.1
2023-03-12T01:18:45.000Z,70.3
2023-03-12T01:20:10.447Z,70.7
2023-03-12T01:21:17.000Z,71.3
2023-03-12T01:22:42.835Z,71.9
2023-03-12T01:23:59.280Z,71.3
2023-03-12T01:25:06.000Z,70.8
2023-03-12T01:26:31.417Z,70.5
2023-03-12T01:27:11.000Z,70.1
2023-03-12T01:27:38.000Z,70.1
2023-03-12T01:29:03.804Z,70.6
2023-03-12T01:30:19.015Z,70.8
2023-03-12T01:31:35.463Z,69.8
2023-03-12T01:34:07.601Z,70.6
2023-03-12T01:35:52.962Z,70.2
2023-03-12T01:36:39.992Z,69.5
2023-03-12T01:37:47.000Z,69.6
2023-03-12T01:39:12.629Z,69.7
2023-03-12T01:40:28.577Z,69.8
2023-03-12T01:41:45.020Z,70.1
2023-03-12T01:43:01.227Z,70.5
2023-03-12T01:44:17.162Z,70.4
2023-03-12T01:45:24.000Z,70.5
2023-03-12T01:46:48.569Z,70.3
2023-03-12T01:48:04.765Z,70.4
2023-03-12T01:49:11.000Z,70.2
2023-03-12T01:50:37.156Z,70.1
2023-03-12T01:51:53.351Z,70.3
2023-03-12T01:53:00.000Z,70.7
2023-03-12T01:54:25.992Z,71.1
2023-03-12T01:55:41.936Z,71
2023-03-12T01:56:48.000Z,70.9
2023-03-12T01:58:14.575Z,71.1
2023-03-12T01:59:30.524Z,71.2
2023-03-12T02:00:46.719Z,71.8
2023-03-12T02:01:53.000Z,71.1
2023-03-12T02:03:18.127Z,71.5
2023-03-12T02:04:34.323Z,71.2
2023-03-12T02:05:50.518Z,71.2
2023-03-12T02:07:06.715Z,70.8
2023-03-12T02:08:50.905Z,70.7
2023-03-12T02:09:39.106Z,70.7
2023-03-12T02:10:46.000Z,70.8
2023-03-12T02:12:11.498Z,70.9
2023-03-12T02:13:27.694Z,70.9
2023-03-12T02:14:34.000Z,70.8
2023-03-12T02:15:50.000Z,71
2023-03-12T02:17:16.532Z,70.7
2023-03-12T02:18:32.478Z,71.1
2023-03-12T02:19:47.690Z,71.1
2023-03-12T02:20:54.000Z,71.1
2023-03-12T02:22:20.082Z,70.7
2023-03-12T02:23:27.000Z,70.9
2023-03-12T02:24:52.718Z,70.8
2023-03-12T02:26:08.670Z,70.5
2023-03-12T02:27:25.108Z,70.5
2023-03-12T02:28:41.061Z,70.5
2023-03-12T02:29:57.506Z,70.7
2023-03-12T02:31:13.453Z,70.1
2023-03-12T02:32:29.899Z,70.1
2023-03-12T02:33:36.000Z,70.3
2023-03-12T02:34:52.000Z,70.3
2023-03-12T02:36:17.253Z,70.3
2023-03-12T02:37:33.449Z,70.8
2023-03-12T02:38:49.644Z,70.5
2023-03-12T02:40:05.841Z,70.5
2023-03-12T02:41:22.036Z,70.7
2023-03-12T02:42:38.233Z,70.7
2023-03-12T02:43:19.000Z,69.7
2023-03-12T02:43:54.428Z,70.2
2023-03-12T02:45:10.625Z,69.7
2023-03-12T02:46:26.820Z,69.8
2023-03-12T02:47:43.017Z,69.8
2023-03-12T02:50:15.408Z,69.2
2023-03-12T02:52:08.378Z,69.6
2023-03-12T02:52:37.000Z,69.3
2023-03-12T02:54:03.012Z,69.6
2023-03-12T02:55:19.208Z,69.7
2023-03-12T02:56:35.404Z,69.8
2023-03-12T02:57:51.843Z,69.4
2023-03-12T02:58:58.000Z,69.9
2023-03-12T03:00:14.000Z,69.2
2023-03-12T03:01:31.000Z,68.8
2023-03-12T03:02:56.634Z,69.8
2023-03-12T03:04:03.000Z,69.8
2023-03-12T03:05:28.776Z,69.7
2023-03-12T03:06:35.000Z,70.1
2023-03-12T03:08:01.168Z,70.2
2023-03-12T03:09:07.000Z,69.8
2023-03-12T03:10:32.576Z,69.6
2023-03-12T03:11:39.000Z,69.9
2023-03-12T03:13:05.212Z,69.9
2023-03-12T03:14:21.410Z,69.5
2023-03-12T03:15:37.360Z,69.5
2023-03-12T03:16:53.555Z,68.9
2023-03-12T03:18:09.752Z,69.2
2023-03-12T03:19:25.947Z,69
2023-03-12T03:20:42.144Z,68.9
2023-03-12T03:21:58.339Z,68.7
2023-03-12T03:23:14.536Z,68.6
2023-03-12T03:24:30.731Z,69
2023-03-12T03:25:45.943Z,68.9
2023-03-12T03:27:02.386Z,68.9
2023-03-12T03:28:09.000Z,69.5
2023-03-12T03:29:25.000Z,69.4
2023-03-12T03:30:50.727Z,68.8
2023-03-12T03:32:07.166Z,68.8
2023-03-12T03:33:23.119Z,68.4
2023-03-12T03:35:23.866Z,69
2023-03-12T03:35:55.756Z,69.1
2023-03-12T03:37:11.706Z,68.9
2023-03-12T03:38:27.903Z,68.9
2023-03-12T03:39:34.000Z,68.8
2023-03-12T03:41:00.546Z,68.8
2023-03-12T03:42:15.506Z,68.8
2023-03-12T03:43:31.948Z,69
2023-03-12T03:44:38.000Z,68.8
2023-03-12T03:45:54.000Z,69.3
2023-03-12T03:47:20.290Z,68.9
2023-03-12T03:48:36.486Z,69.2
2023-03-12T03:49:52.682Z,69.1
2023-03-12T03:51:08.878Z,68.9
2023-03-12T03:52:25.074Z,69.1
2023-03-12T03:53:41.270Z,68.8
2023-03-12T03:54:57.466Z,68.2
2023-03-12T03:56:04.000Z,68.4
2023-03-12T03:57:29.857Z,68.3
2023-03-12T03:58:35.000Z,68.9
2023-03-12T04:00:01.266Z,68.8
2023-03-12T04:01:08.000Z,68.6
2023-03-12T04:02:33.657Z,68.7
2023-03-12T04:03:49.854Z,68.6
2023-03-12T04:04:56.000Z,68.3
2023-03-12T04:06:12.000Z,68.1
2023-03-12T04:08:19.843Z,68.6
2023-03-12T04:08:53.658Z,68.3
2023-03-12T04:10:09.854Z,68.6
2023-03-12T04:11:26.050Z,67.8
2023-03-12T04:12:42.246Z,68.3
2023-03-12T04:13:58.442Z,68
2023-03-12T04:15:14.637Z,67.9
2023-03-12T04:16:30.834Z,68
2023-03-12T04:17:37.000Z,68.3
2023-03-12T04:19:03.226Z,68.3
2023-03-12T04:20:19.421Z,68.6
2023-03-12T04:21:26.000Z,68.8
2023-03-12T04:22:50.829Z,68.2
2023-03-12T04:24:07.026Z,68.9
2023-03-12T04:25:14.000Z,69
2023-03-12T04:26:39.666Z,69.3
2023-03-12T04:27:46.000Z,69.1
2023-03-12T04:28:36.000Z,71
2023-03-12T04:29:02.000Z,69.5
2023-03-12T04:30:28.005Z,70.3
2023-03-12T04:31:44.201Z,70.3
2023-03-12T04:32:51.000Z,70.3
2023-03-12T04:35:32.788Z,71.4
2023-03-12T04:36:48.985Z,71.7
2023-03-12T04:38:05.180Z,71.5
2023-03-12T04:39:20.392Z,71.4
2023-03-12T04:40:36.587Z,71.9
2023-03-12T04:41:43.000Z,72.2
2023-03-12T04:42:59.000Z,72.3
2023-03-12T04:44:25.175Z,72.9
2023-03-12T04:45:32.000Z,72.8
2023-03-12T04:46:57.567Z,72.6
2023-03-12T04:48:13.763Z,73.2
2023-03-12T04:49:30.217Z,73.6
2023-03-12T04:50:36.000Z,74
2023-03-12T04:51:26.000Z,74.4
2023-03-12T04:52:02.595Z,73.7
2023-03-12T04:53:09.000Z,74
2023-03-12T04:54:34.743Z,74
2023-03-12T04:55:40.000Z,74.5
2023-03-12T04:58:49.465Z,75.2
2023-03-12T04:59:29.000Z,74.9
2023-03-12T05:00:45.000Z,75.3
2023-03-12T05:02:01.000Z,75.4
2023-03-12T05:03:27.130Z,75.7
2023-03-12T05:04:43.326Z,76
2023-03-12T05:05:59.522Z,76
2023-03-12T05:07:15.718Z,76.3
2023-03-12T05:08:22.000Z,76.1
2023-03-12T05:09:48.110Z,76.3
2023-03-12T05:11:04.306Z,77
2023-03-12T05:12:19.770Z,78
2023-03-12T05:13:35.713Z,77.9
2023-03-12T05:14:52.153Z,78.3
2023-03-12T05:15:32.000Z,79.3
2023-03-12T05:16:08.105Z,78.6
2023-03-12T05:17:24.301Z,78.7
2023-03-12T05:18:40.496Z,78.5
2023-03-12T05:19:56.693Z,79
2023-03-12T05:22:29.085Z,79.5
2023-03-12T05:23:45.280Z,79.8
2023-03-12T05:24:52.000Z,80.2
2023-03-12T05:26:17.672Z,80.3
2023-03-12T05:27:34.119Z,80.4
2023-03-12T05:28:39.000Z,80.6
2023-03-12T05:30:05.521Z,80.9
2023-03-12T05:31:21.472Z,81.2
2023-03-12T05:32:37.668Z,81.8
2023-03-12T05:33:53.864Z,82.4
2023-03-12T05:35:10.317Z,82.5
2023-03-12T05:36:26.504Z,83
2023-03-12T05:37:42.452Z,83.8
2023-03-12T05:38:49.000Z,84
2023-03-12T05:40:14.844Z,83.9
2023-03-12T05:41:31.039Z,83.3
2023-03-12T05:42:47.235Z,83.7
2023-03-12T05:44:03.431Z,83.3
2023-03-12T05:45:09.000Z,83.1
2023-03-12T05:46:34.839Z,83.1
2023-03-12T05:47:51.035Z,83.1
2023-03-12T05:48:58.000Z,82.9
2023-03-12T05:50:23.427Z,82.9
2023-03-12T05:51:30.000Z,82.8
2023-03-12T05:52:55.819Z,83.1
2023-03-12T05:54:12.015Z,83
2023-03-12T05:55:28.211Z,83.3
2023-03-12T05:56:44.407Z,83.4
2023-03-12T05:58:00.603Z,83.7
2023-03-12T05:59:16.798Z,83.6
2023-03-12T06:00:32.995Z,83.4
2023-03-12T06:01:48.206Z,83.4
2023-03-12T06:03:04.403Z,83.3
2023-03-12T06:04:20.598Z,84
2023-03-12T06:05:36.794Z,84
2023-03-12T06:06:52.990Z,83.7
2023-03-12T06:08:09.186Z,83.5
2023-03-12T06:09:25.382Z,83
2023-03-12T06:10:41.578Z,82.5
2023-03-12T06:11:58.020Z,82.6
2023-03-12T06:13:14.212Z,82.7
2023-03-12T06:14:30.165Z,82.1
2023-03-12T06:15:46.362Z,81.9
2023-03-12T06:17:02.557Z,82.2
2023-03-12T06:18:17.769Z,82.9
2023-03-12T06:19:24.000Z,83.3
2023-03-12T06:20:50.408Z,82.4
2023-03-12T06:22:06.358Z,82.5
2023-03-12T06:23:22.555Z,82.5
2023-03-12T06:24:38.751Z,82.2
2023-03-12T06:25:54.948Z,81.6
2023-03-12T06:27:11.143Z,81.5
2023-03-12T06:28:27.341Z,81.3
2023-03-12T06:29:43.536Z,80.7
2023-03-12T06:30:59.734Z,80.8
2023-03-12T06:32:15.929Z,80.7
2023-03-12T06:33:32.126Z,80.7
2023-03-12T06:34:47.338Z,80.8
2023-03-12T06:36:03.534Z,80.4
2023-03-12T06:37:19.976Z,80.3
2023-03-12T06:38:35.926Z,80.3
2023-03-12T06:39:52.122Z,80.8
2023-03-12T06:41:08.318Z,80.4
2023-03-12T06:42:24.514Z,80.3
2023-03-12T06:43:40.972Z,80.6
2023-03-12T06:44:56.905Z,79.9
2023-03-12T06:46:13.103Z,79.9
2023-03-12T06:47:29.298Z,80.3
2023-03-12T06:48:45.743Z,80.5
2023-03-12T06:50:01.690Z,79.9
2023-03-12T06:51:16.903Z,80.2
2023-03-12T06:52:33.099Z,80.7
2023-03-12T06:53:49.544Z,80.1
2023-03-12T06:55:05.492Z,79.6
2023-03-12T06:56:21.689Z,79.5
2023-03-12T06:57:37.884Z,79.4
2023-03-12T06:58:54.081Z,79.4
2023-03-12T07:00:10.276Z,79.7
2023-03-12T07:01:26.472Z,79.5
2023-03-12T07:02:42.668Z,79.4
2023-03-12T07:03:58.864Z,79.5
2023-03-12T07:05:15.060Z,79.8
2023-03-12T07:06:31.256Z,79.6
2023-03-12T07:07:46.467Z,79.3
2023-03-12T07:09:02.664Z,79.7
2023-03-12T07:10:18.859Z,79.7
2023-03-12T07:11:35.057Z,78.8
2023-03-12T07:12:51.252Z,78.7
2023-03-12T07:14:07.450Z,78.9
2023-03-12T07:15:23.645Z,78.5
2023-03-12T07:16:39.841Z,78.2
2023-03-12T07:17:56.037Z,78.6
2023-03-12T07:19:12.234Z,78.9
2023-03-12T07:20:28.430Z,79.2
2023-03-12T07:21:44.888Z,79.5
2023-03-12T07:23:00.821Z,79.8
2023-03-12T07:24:16.035Z,80.1
2023-03-12T07:25:32.230Z,80.1
2023-03-12T07:26:48.428Z,79.6
2023-03-12T07:28:04.623Z,79.9
2023-03-12T07:29:21.066Z,79.6
2023-03-12T07:30:37.017Z,79.1
2023-03-12T07:31:53.213Z,78.9
2023-03-12T07:33:09.409Z,79.3
2023-03-12T07:34:25.606Z,79.2
2023-03-12T07:35:41.802Z,79.2
2023-03-12T07:36:57.998Z,79.5
2023-03-12T07:38:14.194Z,79.5
2023-03-12T07:39:30.391Z,79.6
2023-03-12T07:40:46.586Z,79.7
2023-03-12T07:42:01.800Z,79.8
2023-03-12T07:43:17.995Z,79.3
2023-03-12T07:44:34.192Z,79.3
2023-03-12T07:45:50.387Z,79.5
2023-03-12T07:47:06.584Z,79.4
2023-03-12T07:48:22.779Z,79.5
2023-03-12T07:49:38.976Z,79.1
2023-03-12T07:50:55.172Z,78.8
2023-03-12T07:52:11.368Z,78.9
2023-03-12T07:53:27.564Z,78.9
2023-03-12T07:54:43.760Z,79.4
2023-03-12T07:55:59.955Z,79.4
2023-03-12T07:57:06.000Z,79.1
2023-03-12T07:58:32.347Z,78.8
2023-03-12T07:59:47.561Z,78.6
2023-03-12T08:01:03.756Z,78.7
2023-03-12T08:02:19.954Z,78.3
2023-03-12T08:03:36.149Z,78.3
2023-03-12T08:04:52.346Z,78.1
2023-03-12T08:05:59.000Z,78.5
2023-03-12T08:07:24.737Z,78
2023-03-12T08:08:40.933Z,77.9
2023-03-12T08:09:47.000Z,78.1
2023-03-12T08:11:13.325Z,78.1
2023-03-12T08:12:29.522Z,77.9
2023-03-12T08:13:45.717Z,77.8
2023-03-12T08:14:52.000Z,77.7
2023-03-12T08:16:18.109Z,77
2023-03-12T08:17:33.322Z,76.7
2023-03-12T08:18:49.518Z,76.5
2023-03-12T08:19:56.000Z,77.5
2023-03-12T08:21:21.910Z,78.5
2023-03-12T08:22:37.372Z,78.2
2023-03-12T08:23:53.324Z,78.7
2023-03-12T08:25:09.521Z,78.5
2023-03-12T08:26:25.716Z,79
2023-03-12T08:27:41.913Z,78.9
2023-03-12T08:28:58.108Z,78.4
2023-03-12T08:30:14.305Z,78.6
2023-03-12T08:31:21.000Z,78.9
2023-03-12T08:32:46.696Z,78.7
2023-03-12T08:33:53.000Z,78.5
2023-03-12T08:35:19.088Z,78.3
2023-03-12T08:36:26.000Z,79.2
2023-03-12T08:37:51.733Z,79.3
2023-03-12T08:39:06.693Z,78.9
2023-03-12T08:40:22.889Z,79.1
2023-03-12T08:41:39.084Z,79.9
2023-03-12T08:42:46.000Z,80
2023-03-12T08:44:11.476Z,79.7
2023-03-12T08:45:27.671Z,79.2
2023-03-12T08:46:44.113Z,78.5
2023-03-12T08:47:50.000Z,79
2023-03-12T08:49:16.501Z,79
2023-03-12T08:50:23.000Z,78.8
2023-03-12T08:51:48.649Z,78.6
2023-03-12T08:52:55.000Z,79.3
2023-03-12T08:54:21.040Z,78.6
2023-03-12T08:55:36.253Z,78.5
2023-03-12T08:56:43.000Z,78
2023-03-12T08:58:08.646Z,77.9
2023-03-12T08:59:24.842Z,78.5
2023-03-12T09:00:31.000Z,77.2
2023-03-12T09:01:48.000Z,76.6
2023-03-12T09:03:04.000Z,77.4
2023-03-12T09:04:29.624Z,77.7
2023-03-12T09:05:36.000Z,78
2023-03-12T09:07:02.017Z,78.7
2023-03-12T09:08:17.485Z,78.5
2023-03-12T09:09:33.435Z,78.2
2023-03-12T09:10:49.879Z,77.2
2023-03-12T09:12:04.843Z,77.7
2023-03-12T09:13:11.000Z,78.3
2023-03-12T09:14:28.000Z,78.9
2023-03-12T09:15:53.432Z,79.2
2023-03-12T09:17:09.627Z,79.8
2023-03-12T09:17:50.000Z,79.4
2023-03-12T09:18:25.823Z,79.9
2023-03-12T09:19:42.019Z,79.8
2023-03-12T09:20:58.216Z,79.4
2023-03-12T09:22:05.000Z,79.2
2023-03-12T09:24:36.000Z,79.5
2023-03-12T09:26:02.026Z,80.3
2023-03-12T09:27:17.238Z,80.8
2023-03-12T09:28:33.434Z,81
2023-03-12T09:29:40.000Z,81.2
2023-03-12T09:31:06.073Z,81
2023-03-12T09:32:22.022Z,80.4
2023-03-12T09:33:29.000Z,80.8
2023-03-12T09:34:54.414Z,80.7
2023-03-12T09:36:10.611Z,80.7
2023-03-12T09:37:26.806Z,80.9
2023-03-12T09:38:43.259Z,80.8
2023-03-12T09:39:59.198Z,81
2023-03-12T09:41:06.000Z,81.3
2023-03-12T09:42:31.590Z,80.7
2023-03-12T09:43:46.803Z,80.8
2023-03-12T09:45:08.636Z,80.5
2023-03-12T09:46:19.442Z,80.8
2023-03-12T09:47:26.000Z,80.1
2023-03-12T09:48:42.000Z,80.6
2023-03-12T09:50:08.029Z,80.1
2023-03-12T09:51:23.979Z,80.2
2023-03-12T09:52:40.416Z,79.7
2023-03-12T09:53:56.617Z,79.9
2023-03-12T09:55:12.568Z,80.2
2023-03-12T09:56:29.015Z,80.5
2023-03-12T09:57:44.959Z,80.4
2023-03-12T09:59:01.409Z,80.4
2023-03-12T10:00:07.000Z,80
2023-03-12T10:01:32.811Z,80.1
2023-03-12T10:02:48.759Z,79.8
2023-03-12T10:04:04.955Z,80
2023-03-12T10:05:21.398Z,79.7
2023-03-12T10:06:37.595Z,79.4
2023-03-12T10:07:53.543Z,79.1
2023-03-12T10:09:10.005Z,79.2
2023-03-12T10:10:25.936Z,78.3
2023-03-12T10:11:42.132Z,78.1
2023-03-12T10:12:49.000Z,78.5
2023-03-12T10:14:14.523Z,78.6
2023-03-12T10:15:21.000Z,79
2023-03-12T10:16:46.915Z,79.2
2023-03-12T10:18:02.369Z,79.3
2023-03-12T10:19:18.567Z,79.2
2023-03-12T10:20:34.519Z,78.7
2023-03-12T10:21:41.000Z,78.6
2023-03-12T10:23:16.351Z,78.5
2023-03-12T10:24:14.000Z,78.2
2023-03-12T10:25:30.000Z,78.6
2023-03-12T10:26:55.867Z,78.9
2023-03-12T10:28:02.000Z,79.3
2023-03-12T10:29:28.257Z,78.6
2023-03-12T10:30:35.000Z,78.4
2023-03-12T10:31:51.000Z,78.3
2023-03-12T10:33:07.000Z,78.8
2023-03-12T10:34:32.919Z,78.3
2023-03-12T10:36:41.493Z,79
2023-03-12T10:37:05.558Z,79.6
2023-03-12T10:38:21.755Z,79.1
2023-03-12T10:39:28.000Z,79.5
2023-03-12T10:40:53.897Z,79.2
2023-03-12T10:42:10.341Z,79.2
2023-03-12T10:43:26.540Z,79.3
2023-03-12T10:44:42.484Z,78.8
2023-03-12T10:46:34.741Z,78.7
2023-03-12T10:47:15.130Z,78.8
2023-03-12T10:48:21.000Z,78.3
2023-03-12T10:49:38.000Z,77.8
2023-03-12T10:50:53.000Z,77.3
2023-03-12T10:52:18.921Z,77.3
2023-03-12T10:53:34.871Z,76.9
2023-03-12T10:54:51.310Z,76.9
2023-03-12T10:55:58.000Z,76.3
2023-03-12T10:57:23.458Z,76.2
2023-03-12T10:58:30.000Z,75.4
2023-03-12T10:59:55.850Z,74.9
2023-03-12T11:01:02.000Z,74.9
2023-03-12T11:02:28.242Z,74.6
2023-03-12T11:03:35.000Z,74.8
2023-03-12T11:05:00.629Z,75
2023-03-12T11:06:17.069Z,75.2
2023-03-12T11:07:32.043Z,74.8
2023-03-12T11:08:38.000Z,74.2
2023-03-12T11:10:03.448Z,74.7
2023-03-12T11:11:09.000Z,74.7
2023-03-12T11:12:34.138Z,74.3
2023-03-12T11:13:50.315Z,74.5
2023-03-12T11:14:57.000Z,74.3
2023-03-12T11:16:22.458Z,74.8
2023-03-12T11:17:38.652Z,74.5
2023-03-12T11:19:26.605Z,74
2023-03-12T11:20:01.000Z,74.1
2023-03-12T11:21:18.000Z,74.5
2023-03-12T11:22:43.426Z,75.2
2023-03-12T11:23:50.000Z,75.2
2023-03-12T11:25:15.813Z,75.4
2023-03-12T11:26:22.000Z,75.1
2023-03-12T11:27:39.000Z,75
2023-03-12T11:28:54.000Z,75.2
2023-03-12T11:30:10.000Z,75.7
2023-03-12T11:31:26.000Z,75.1
2023-03-12T11:32:51.992Z,75
2023-03-12T11:34:08.186Z,74.8
2023-03-12T11:35:15.000Z,74.7
2023-03-12T11:36:40.573Z,74.5
2023-03-12T11:37:55.793Z,74.5
2023-03-12T11:39:01.000Z,74.7
2023-03-12T11:40:27.197Z,74.9
2023-03-12T11:41:43.637Z,75
2023-03-12T11:42:58.861Z,74.7
2023-03-12T11:44:13.821Z,74.7
2023-03-12T11:45:30.016Z,74.6
2023-03-12T11:47:09.724Z,74.2
2023-03-12T11:47:53.000Z,74
2023-03-12T11:49:09.000Z,74.1
2023-03-12T11:50:35.034Z,73.7
2023-03-12T11:51:51.228Z,74.2
2023-03-12T11:53:07.177Z,73.8
2023-03-12T11:54:14.000Z,73.5
2023-03-12T11:55:39.807Z,73
2023-03-12T11:56:46.000Z,73
2023-03-12T11:58:12.190Z,72.3
2023-03-12T11:59:28.388Z,72.5
2023-03-12T12:00:34.000Z,72.8
2023-03-12T12:02:35.984Z,73.3
2023-03-12T12:03:15.998Z,72.8
2023-03-12T12:04:22.000Z,73.2
2023-03-12T12:05:38.000Z,73.6
2023-03-12T12:07:04.571Z,73.5
2023-03-12T12:08:20.516Z,73.6
2023-03-12T12:09:26.000Z,73.7
2023-03-12T12:10:51.197Z,74.2
2023-03-12T12:12:07.385Z,74
2023-03-12T12:13:23.332Z,74
2023-03-12T12:14:39.526Z,73.8
2023-03-12T12:15:55.963Z,72
2023-03-12T12:17:01.000Z,71.7
2023-03-12T12:18:27.378Z,71.5
2023-03-12T12:19:42.342Z,72.1
2023-03-12T12:20:58.537Z,72.2
2023-03-12T12:22:05.000Z,72.3
2023-03-12T12:23:30.924Z,72
2023-03-12T12:24:47.118Z,72.3
2023-03-12T12:26:03.558Z,73
2023-03-12T12:28:15.812Z,73
2023-03-12T12:28:35.698Z,73.3
2023-03-12T12:29:42.000Z,72.7
2023-03-12T12:31:08.331Z,72.4
2023-03-12T12:32:15.000Z,72.8
2023-03-12T12:33:31.000Z,73.3
2023-03-12T12:34:56.909Z,73.5
2023-03-12T12:37:00.137Z,73
2023-03-12T12:37:17.000Z,72.8
2023-03-12T12:38:43.285Z,72.7
2023-03-12T12:40:35.719Z,72.8
2023-03-12T12:41:15.917Z,72.4
2023-03-12T12:42:40.090Z,71.7
2023-03-12T12:43:09.000Z,72.3
2023-03-12T12:43:47.086Z,72.2
2023-03-12T12:45:02.545Z,72.3
2023-03-12T12:46:18.492Z,72.2
2023-03-12T12:47:45.883Z,72.5
2023-03-12T12:49:55.000Z,71.9
2023-03-12T12:51:21.309Z,72.2
2023-03-12T12:52:51.675Z,71.5
2023-03-12T12:53:53.696Z,71.7
2023-03-12T12:55:00.000Z,71.5
2023-03-12T12:56:26.083Z,71.8
2023-03-12T12:57:33.000Z,72.2
2023-03-12T12:58:22.000Z,70.7
2023-03-12T12:58:58.471Z,72
2023-03-12T13:00:05.000Z,70.9
2023-03-12T13:01:30.858Z,70.9
2023-03-12T13:03:10.171Z,71.3
2023-03-12T13:05:10.000Z,70.3
2023-03-12T13:06:35.632Z,70.1
2023-03-12T13:07:41.000Z,69.9
2023-03-12T13:09:07.035Z,70
2023-03-12T13:10:14.000Z,69.9
2023-03-12T13:11:39.422Z,70
2023-03-12T13:12:55.616Z,69.7
2023-03-12T13:14:11.809Z,69.9
2023-03-12T13:15:28.003Z,70.5
2023-03-12T13:16:44.196Z,70.8
2023-03-12T13:18:00.390Z,70.1
2023-03-12T13:19:16.841Z,70
2023-03-12T13:20:23.000Z,69.8
2023-03-12T13:21:48.970Z,70.3
2023-03-12T13:23:05.164Z,70.3
2023-03-12T13:24:12.000Z,70.9
2023-03-12T13:25:51.551Z,71
2023-03-12T13:26:52.761Z,70.8
2023-03-12T13:28:09.211Z,70.7
2023-03-12T13:29:24.174Z,70.7
2023-03-12T13:30:55.359Z,70.5
2023-03-12T13:31:55.577Z,70.6
2023-03-12T13:33:12.012Z,70.5
2023-03-12T13:34:28.211Z,70.3
2023-03-12T13:35:44.159Z,70
2023-03-12T13:37:00.352Z,70.5
2023-03-12T13:38:07.000Z,70.9
2023-03-12T13:39:32.981Z,71.1
2023-03-12T13:40:48.933Z,70.9
2023-03-12T13:41:55.000Z,71.1
2023-03-12T13:44:19.233Z,70.6
2023-03-12T13:44:37.514Z,70.3
2023-03-12T13:45:53.708Z,70.8
2023-03-12T13:47:08.918Z,70.3
2023-03-12T13:48:15.000Z,70
2023-03-12T13:49:41.305Z,69.9
2023-03-12T13:50:48.000Z,70.8
2023-03-12T13:52:04.000Z,70.3
2023-03-12T13:53:29.885Z,69.7
2023-03-12T13:54:36.000Z,69.3
2023-03-12T13:56:39.142Z,68.4
2023-03-12T13:57:16.764Z,68.7
2023-03-12T13:58:31.729Z,69.3
2023-03-12T13:59:37.000Z,69.2
2023-03-12T14:00:53.000Z,69
2023-03-12T14:02:19.326Z,68.6
2023-03-12T14:03:26.000Z,69.2
2023-03-12T14:04:51.713Z,69.1
2023-03-12T14:05:58.000Z,69.8
2023-03-12T14:07:24.347Z,69.7
2023-03-12T14:08:57.071Z,69.2
2023-03-12T14:09:46.000Z,69.8
2023-03-12T14:11:01.000Z,70.1
2023-03-12T14:12:26.917Z,69.9
2023-03-12T14:13:43.355Z,70.1
2023-03-12T14:14:59.550Z,69.8
2023-03-12T14:16:15.748Z,69.2
2023-03-12T14:17:31.691Z,68.9
2023-03-12T14:18:47.885Z,68.6
2023-03-12T14:20:04.326Z,69
2023-03-12T14:21:20.272Z,69.1
2023-03-12T14:22:36.465Z,68.9
2023-03-12T14:23:52.659Z,68.6
2023-03-12T14:25:08.852Z,69.2
2023-03-12T14:26:22.000Z,69.2
2023-03-12T14:27:40.506Z,68.5
2023-03-12T14:28:47.000Z,68
2023-03-12T14:30:03.000Z,68.6
2023-03-12T14:31:19.000Z,68.4
2023-03-12T14:32:45.029Z,68.4
2023-03-12T14:34:01.223Z,68.2
2023-03-12T14:35:17.417Z,67.8
2023-03-12T14:36:41.268Z,68.3
2023-03-12T14:37:47.847Z,67.8
2023-03-12T14:38:54.000Z,67.7
2023-03-12T14:40:20.233Z,67.8
2023-03-12T14:41:26.000Z,67.9
2023-03-12T14:42:50.904Z,68.3
2023-03-12T14:44:06.857Z,68.7
2023-03-12T14:45:23.050Z,68.3
2023-03-12T14:46:30.000Z,67.8
2023-03-12T14:47:55.437Z,67.6
2023-03-12T14:49:02.000Z,67.5
2023-03-12T14:50:18.000Z,67.2
2023-03-12T14:51:34.000Z,67.2
2023-03-12T14:53:00.212Z,67.5
2023-03-12T14:54:07.000Z,67.5
2023-03-12T14:55:23.000Z,67.1
2023-03-12T14:56:48.792Z,66.9
2023-03-12T14:58:04.986Z,66.6
2023-03-12T15:00:16.711Z,66.5
2023-03-12T15:00:36.389Z,66.5
2023-03-12T15:01:43.000Z,66.8
2023-03-12T15:03:08.776Z,66.4
2023-03-12T15:04:24.970Z,66.5
2023-03-12T15:05:41.422Z,67.3
2023-03-12T15:06:57.357Z,66.9
2023-03-12T15:08:13.550Z,66.3
2023-03-12T15:09:19.000Z,66.5
2023-03-12T15:10:44.963Z,66.5
2023-03-12T15:12:00.415Z,66.6
2023-03-12T15:13:16.366Z,66.7
2023-03-12T15:14:32.560Z,67.8
2023-03-12T15:15:48.753Z,67.8
2023-03-12T15:17:03.973Z,66.9
2023-03-12T15:18:19.183Z,66.8
2023-03-12T15:19:35.376Z,67.8
2023-03-12T15:20:42.000Z,68
2023-03-12T15:21:58.000Z,67.7
2023-03-12T15:23:23.957Z,67.8
2023-03-12T15:24:56.532Z,68.1
2023-03-12T15:25:47.000Z,68.5
2023-03-12T15:27:03.000Z,68.7
2023-03-12T15:28:28.731Z,69
2023-03-12T15:29:35.000Z,68.9
2023-03-12T15:31:01.118Z,69.1
2023-03-12T15:32:08.000Z,69
2023-03-12T15:33:33.505Z,69.4
2023-03-12T15:34:49.698Z,68.7
2023-03-12T15:36:04.909Z,68.8
2023-03-12T15:37:21.102Z,68.8
2023-03-12T15:38:37.539Z,68.5
2023-03-12T15:39:53.490Z,68.3
2023-03-12T15:41:09.683Z,68.4
2023-03-12T15:42:16.000Z,68.3
2023-03-12T15:44:58.264Z,67.8
2023-03-12T15:46:14.457Z,68
2023-03-12T15:47:21.000Z,68.2
2023-03-12T15:48:47.094Z,68
2023-03-12T15:49:53.000Z,67.9
2023-03-12T15:51:19.232Z,68.1
2023-03-12T15:52:25.000Z,67.9
2023-03-12T15:53:50.636Z,68.1
2023-03-12T15:54:57.000Z,67.9
2023-03-12T15:56:23.023Z,67.9
2023-03-12T15:57:39.217Z,68
2023-03-12T15:58:55.660Z,67.8
2023-03-12T16:00:02.000Z,67.8
2023-03-12T16:01:27.798Z,68.2
2023-03-12T16:02:43.991Z,68.2
2023-03-12T16:04:00.184Z,67.8
2023-03-12T16:05:16.378Z,68.4
2023-03-12T16:06:32.821Z,68.1
2023-03-12T16:07:48.765Z,68.4
2023-03-12T16:09:04.959Z,68.3
2023-03-12T16:11:16.313Z,68.5
2023-03-12T16:11:36.364Z,69.1
2023-03-12T16:12:52.558Z,68.5
2023-03-12T16:14:09.019Z,68.7
2023-03-12T16:15:15.000Z,68.7
2023-03-12T16:16:41.138Z,68.5
2023-03-12T16:18:30.435Z,68.8
2023-03-12T16:19:13.525Z,69.1
2023-03-12T16:20:29.719Z,68.8
2023-03-12T16:21:45.913Z,68.8
2023-03-12T16:22:52.000Z,69
2023-03-12T16:24:18.300Z,68.8
2023-03-12T16:25:34.494Z,68.9
2023-03-12T16:26:49.704Z,69
2023-03-12T16:28:05.897Z,69
2023-03-12T16:29:22.090Z,68.8
2023-03-12T16:30:38.284Z,69
2023-03-12T16:31:54.477Z,68.5
2023-03-12T16:33:01.000Z,68.3
2023-03-12T16:34:26.864Z,68.4
2023-03-12T16:36:01.067Z,68.7
2023-03-12T16:36:59.508Z,68.5
2023-03-12T16:38:15.445Z,68.7
2023-03-12T16:39:31.638Z,68.3
2023-03-12T16:40:47.832Z,68.5
2023-03-12T16:42:04.025Z,68.7
2023-03-12T16:43:09.000Z,68.8
2023-03-12T16:44:35.429Z,69
2023-03-12T16:45:42.000Z,69.1
2023-03-12T16:47:07.816Z,69.1
2023-03-12T16:49:22.956Z,69.2
2023-03-12T16:49:40.203Z,69.3
2023-03-12T16:50:56.396Z,68.9
2023-03-12T16:52:11.859Z,68.7
2023-03-12T16:53:30.720Z,68.8
2023-03-12T16:54:43.999Z,68.9
2023-03-12T16:55:50.000Z,69.3
2023-03-12T16:58:08.285Z,68.4
2023-03-12T16:58:23.000Z,68.3
2023-03-12T16:59:48.773Z,68.1